createdAt,value
2022-11-18T00:01:17.356Z,98.12
2022-11-18T00:03:45.256Z,98.31
2022-11-18T00:06:15.830Z,98.21
2022-11-18T00:08:42.870Z,98.19
2022-11-18T00:11:41.895Z,97.76
2022-11-18T00:14:35.336Z,97.82
2022-11-18T00:17:05.512Z,97.86
2022-11-18T00:19:36.121Z,98.03
2022-11-18T00:22:08.067Z,97.90
2022-11-18T00:24:35.166Z,98.35
2022-11-18T00:27:02.080Z,98.00
2022-11-18T00:29:30.821Z,98.13
2022-11-18T00:31:58.480Z,98.33
2022-11-18T00:34:26.427Z,98.26
2022-11-18T00:36:53.520Z,98.18
2022-11-18T00:39:21.385Z,98.42
2022-11-18T00:42:08.220Z,98.19
2022-11-18T00:44:35.704Z,98.15
2022-11-18T00:47:05.484Z,97.74
2022-11-18T00:49:32.457Z,98.01
2022-11-18T00:51:59.485Z,98.33
2022-11-18T00:54:26.472Z,98.13
2022-11-18T00:56:53.420Z,98.42
2022-11-18T00:59:20.666Z,98.31
2022-11-18T01:01:49.106Z,98.29
2022-11-18T01:04:16.848Z,98.02
2022-11-18T01:06:43.801Z,98.24
2022-11-18T01:09:10.803Z,97.86
2022-11-18T01:11:56.614Z,98.37
2022-11-18T01:14:26.790Z,98.02
2022-11-18T01:16:55.716Z,98.33
2022-11-18T01:19:24.091Z,97.52
2022-11-18T01:21:51.339Z,97.86
2022-11-18T01:24:18.302Z,97.95
2022-11-18T01:26:45.255Z,98.08
2022-11-18T01:29:12.301Z,98.01
2022-11-18T01:31:55.566Z,97.61
2022-11-18T01:34:29.341Z,98.25
2022-11-18T01:36:57.904Z,98.16
2022-11-18T01:39:25.389Z,98.39
2022-11-18T01:41:52.400Z,98.23
2022-11-18T01:44:59.926Z,98.36
2022-11-18T01:47:37.204Z,98.21
2022-11-18T01:50:06.578Z,98.14
2022-11-18T01:52:35.335Z,98.03
2022-11-18T01:55:14.063Z,97.75
2022-11-18T01:57:42.189Z,97.35
2022-11-18T02:00:10.215Z,97.96
2022-11-18T02:02:38.230Z,98.12
2022-11-18T02:05:08.805Z,97.62
2022-11-18T02:07:43.093Z,97.68
2022-11-18T02:10:21.295Z,98.00
2022-11-18T02:12:50.194Z,97.90
2022-11-18T02:15:21.623Z,97.89
2022-11-18T02:18:07.266Z,97.82
2022-11-18T02:20:46.616Z,97.56
2022-11-18T02:23:44.519Z,97.64
2022-11-18T02:26:47.129Z,97.70
2022-11-18T02:29:32.764Z,97.99
2022-11-18T02:32:04.390Z,97.72
2022-11-18T02:38:59.404Z,97.75
2022-11-18T02:41:31.787Z,97.61
2022-11-18T02:44:11.778Z,97.34
2022-11-18T02:46:40.216Z,97.50
2022-11-18T02:49:16.234Z,97.69
2022-11-18T02:51:45.360Z,97.47
2022-11-18T02:54:13.733Z,97.34
2022-11-18T02:56:42.164Z,97.46
2022-11-18T02:59:09.091Z,97.33
2022-11-18T03:01:36.852Z,97.49
2022-11-18T03:04:04.304Z,97.47
2022-11-18T03:06:40.204Z,96.97
2022-11-18T03:09:28.998Z,97.33
2022-11-18T03:12:44.765Z,97.43
2022-11-18T03:15:44.736Z,97.03
2022-11-18T03:18:28.831Z,97.09
2022-11-18T03:21:39.900Z,97.41
2022-11-18T03:24:28.782Z,97.78
2022-11-18T03:27:19.710Z,97.14
2022-11-18T03:30:07.702Z,97.52
2022-11-18T03:32:41.769Z,98.68
2022-11-18T03:35:19.298Z,98.37
2022-11-18T03:37:50.405Z,98.10
2022-11-18T03:40:23.388Z,98.03
2022-11-18T03:42:56.772Z,98.45
2022-11-18T03:45:47.129Z,98.31
2022-11-18T03:48:22.451Z,97.66
2022-11-18T03:51:00.867Z,97.84
2022-11-18T03:53:33.009Z,98.63
2022-11-18T03:56:15.760Z,99.65
2022-11-18T03:59:13.050Z,99.19
2022-11-18T04:01:48.225Z,99.08
2022-11-18T04:04:15.460Z,99.07
2022-11-18T04:07:12.841Z,99.20
2022-11-18T04:09:50.262Z,99.70
2022-11-18T04:12:21.110Z,100.00
2022-11-18T04:14:52.165Z,100.00
2022-11-18T04:17:26.285Z,100.00
2022-11-18T04:19:53.571Z,100.00
2022-11-18T04:22:20.801Z,99.68
2022-11-18T04:24:47.748Z,100.00
2022-11-18T04:27:14.791Z,100.00
2022-11-18T04:29:41.758Z,100.00
2022-11-18T04:32:08.817Z,100.00
2022-11-18T04:34:35.808Z,100.00
2022-11-18T04:37:02.780Z,100.00
2022-11-18T04:39:29.743Z,99.78
2022-11-18T04:41:56.734Z,99.53
2022-11-18T04:44:32.575Z,99.74
2022-11-18T04:47:03.642Z,100.00
2022-11-18T04:49:31.136Z,100.00
2022-11-18T04:51:58.845Z,100.00
2022-11-18T04:54:26.798Z,100.00
2022-11-18T04:56:55.113Z,99.96
2022-11-18T04:59:26.076Z,99.87
2022-11-18T05:01:53.665Z,99.95
2022-11-18T05:04:25.929Z,100.00
2022-11-18T05:06:53.306Z,100.00
2022-11-18T05:09:21.105Z,100.00
2022-11-18T05:12:07.242Z,100.00
2022-11-18T05:14:34.324Z,100.00
2022-11-18T05:17:04.147Z,100.00
2022-11-18T05:19:31.187Z,100.00
2022-11-18T05:21:58.715Z,100.00
2022-11-18T05:24:26.021Z,100.00
2022-11-18T05:26:54.002Z,100.00
2022-11-18T05:29:21.411Z,100.00
2022-11-18T05:31:49.072Z,100.00
2022-11-18T05:34:17.402Z,99.97
2022-11-18T05:36:44.604Z,99.98
2022-11-18T05:39:11.720Z,99.78
2022-11-18T05:41:57.149Z,99.74
2022-11-18T05:44:24.139Z,99.30
2022-11-18T05:46:51.082Z,99.03
2022-11-18T05:49:18.207Z,99.11
2022-11-18T05:51:45.236Z,98.56
2022-11-18T05:54:16.711Z,98.56
2022-11-18T05:56:45.346Z,98.63
2022-11-18T05:59:12.745Z,98.63
2022-11-18T06:01:51.214Z,98.77
2022-11-18T06:04:28.942Z,99.33
2022-11-18T06:07:07.079Z,98.60
2022-11-18T06:09:41.292Z,98.40
2022-11-18T06:12:09.338Z,98.07
2022-11-18T06:14:43.476Z,98.96
2022-11-18T06:17:27.039Z,98.54
2022-11-18T06:19:54.370Z,98.94
2022-11-18T06:22:21.636Z,98.83
2022-11-18T06:24:48.665Z,98.67
2022-11-18T06:27:16.222Z,98.04
2022-11-18T06:29:43.164Z,98.30
2022-11-18T06:32:10.988Z,98.00
2022-11-18T06:34:41.553Z,98.27
2022-11-18T06:37:21.835Z,97.78
2022-11-18T06:39:48.799Z,97.39
2022-11-18T06:42:35.717Z,97.87
2022-11-18T06:45:04.664Z,97.90
2022-11-18T06:47:31.892Z,97.76
2022-11-18T06:49:58.831Z,97.71
2022-11-18T06:52:25.897Z,97.27
2022-11-18T06:54:52.848Z,97.60
2022-11-18T06:57:19.798Z,97.20
2022-11-18T06:59:46.860Z,97.69
2022-11-18T07:02:13.938Z,97.22
2022-11-18T07:04:41.322Z,97.40
2022-11-18T07:07:08.388Z,97.22
2022-11-18T07:09:37.230Z,97.11
2022-11-18T07:12:05.098Z,97.53
2022-11-18T07:14:32.285Z,97.88
2022-11-18T07:16:59.274Z,97.83
2022-11-18T07:19:29.026Z,98.05
2022-11-18T07:21:59.454Z,98.37
2022-11-18T07:24:26.398Z,98.76
2022-11-18T07:26:54.258Z,98.97
2022-11-18T07:29:21.190Z,98.91
2022-11-18T07:31:48.206Z,99.42
2022-11-18T07:34:15.279Z,98.98
2022-11-18T07:36:42.288Z,98.48
2022-11-18T07:39:09.414Z,98.24
2022-11-18T07:41:36.519Z,98.46
2022-11-18T07:44:05.230Z,98.52
2022-11-18T07:46:35.551Z,98.38
2022-11-18T07:49:08.647Z,98.32
2022-11-18T07:51:39.040Z,98.37
2022-11-18T07:54:09.357Z,98.71
2022-11-18T07:56:36.454Z,99.38
2022-11-18T07:59:04.556Z,99.16
2022-11-18T08:01:32.000Z,99.28
2022-11-18T08:04:06.759Z,98.91
2022-11-18T08:06:35.189Z,99.01
2022-11-18T08:09:02.842Z,99.00
2022-11-18T08:11:29.873Z,98.99
2022-11-18T08:13:56.807Z,99.05
2022-11-18T08:16:25.927Z,98.87
2022-11-18T08:18:53.822Z,99.02
2022-11-18T08:21:22.799Z,99.59
2022-11-18T08:23:56.249Z,99.64
2022-11-18T08:26:24.942Z,99.61
2022-11-18T08:28:53.275Z,99.24
2022-11-18T08:31:27.015Z,100.00
2022-11-18T08:34:02.528Z,99.69
2022-11-18T08:36:32.948Z,99.70
2022-11-18T08:39:02.840Z,100.00
2022-11-18T08:41:40.235Z,99.77
2022-11-18T08:44:10.086Z,99.35
2022-11-18T08:46:37.078Z,100.00
2022-11-18T08:49:04.462Z,100.00
2022-11-18T08:51:31.551Z,99.42
2022-11-18T08:53:58.565Z,99.44
2022-11-18T08:56:25.870Z,99.43
2022-11-18T08:58:53.370Z,99.73
2022-11-18T09:01:20.691Z,99.89
2022-11-18T09:03:48.915Z,99.65
2022-11-18T09:06:25.441Z,99.81
2022-11-18T09:08:53.663Z,99.91
2022-11-18T09:11:26.493Z,100.00
2022-11-18T09:16:44.222Z,100.00
2022-11-18T09:19:46.293Z,100.00
2022-11-18T09:21:58.926Z,100.00
2022-11-18T09:24:25.896Z,100.00
2022-11-18T09:26:53.846Z,100.00
2022-11-18T09:29:25.234Z,99.87
2022-11-18T09:31:54.392Z,99.74
2022-11-18T09:34:22.768Z,100.00
2022-11-18T09:36:50.500Z,100.00
2022-11-18T09:39:17.621Z,99.78
2022-11-18T09:41:54.897Z,100.00
2022-11-18T09:44:40.433Z,99.51
2022-11-18T09:47:09.998Z,100.00
2022-11-18T09:49:43.615Z,99.89
2022-11-18T09:52:34.304Z,100.00
2022-11-18T09:55:13.337Z,100.00
2022-11-18T09:57:46.670Z,100.00
2022-11-18T10:00:26.445Z,100.00
2022-11-18T10:03:12.398Z,100.00
2022-11-18T10:05:56.951Z,99.86
2022-11-18T10:08:35.657Z,100.00
2022-11-18T10:11:23.844Z,100.00
2022-11-18T10:14:54.797Z,100.00
2022-11-18T10:17:51.288Z,100.00
2022-11-18T10:20:30.028Z,100.00
2022-11-18T10:23:12.539Z,100.00
2022-11-18T10:25:39.526Z,100.00
2022-11-18T10:28:22.972Z,100.00
2022-11-18T10:30:50.459Z,100.00
2022-11-18T10:33:28.673Z,100.00
2022-11-18T10:36:19.074Z,100.00
2022-11-18T10:38:49.888Z,100.00
2022-11-18T10:41:20.757Z,100.00
2022-11-18T10:43:52.804Z,100.00
2022-11-18T10:46:29.681Z,100.00
2022-11-18T10:49:08.866Z,100.00
2022-11-18T10:52:10.143Z,100.00
2022-11-18T10:54:37.854Z,100.00
2022-11-18T10:57:23.536Z,100.00
2022-11-18T10:59:57.696Z,100.00
2022-11-18T11:02:38.576Z,100.00
2022-11-18T11:05:22.164Z,100.00
2022-11-18T11:08:36.919Z,100.00
2022-11-18T11:11:04.444Z,100.00
2022-11-18T11:13:32.514Z,100.00
2022-11-18T11:16:05.622Z,100.00
2022-11-18T11:18:41.544Z,100.00
2022-11-18T11:21:27.843Z,100.00
2022-11-18T11:23:54.912Z,100.00
2022-11-18T11:30:33.536Z,100.00
2022-11-18T11:33:23.109Z,100.00
2022-11-18T11:36:02.419Z,100.00
2022-11-18T11:39:04.290Z,100.00
2022-11-18T11:42:23.337Z,100.00
2022-11-18T11:45:15.016Z,100.00
2022-11-18T11:48:18.293Z,100.00
2022-11-18T11:51:03.906Z,100.00
2022-11-18T11:54:21.429Z,100.00
2022-11-18T11:56:55.886Z,100.00
2022-11-18T11:59:32.409Z,100.00
2022-11-18T12:02:14.118Z,100.00
2022-11-18T12:04:53.033Z,100.00
2022-11-18T12:07:45.568Z,100.00
2022-11-18T12:11:06.182Z,100.00
2022-11-18T12:14:26.530Z,100.00
2022-11-18T12:17:19.624Z,100.00
2022-11-18T12:19:46.961Z,100.00
2022-11-18T12:22:14.734Z,100.00
2022-11-18T12:24:43.363Z,100.00
2022-11-18T12:27:34.828Z,100.00
2022-11-18T12:30:04.362Z,100.00
2022-11-18T12:32:46.685Z,100.00
2022-11-18T12:35:37.317Z,100.00
2022-11-18T12:38:04.913Z,100.00
2022-11-18T12:40:52.658Z,100.00
2022-11-18T12:43:45.045Z,100.00
2022-11-18T12:46:45.691Z,100.00
2022-11-18T12:49:22.563Z,100.00
2022-11-18T12:51:52.771Z,100.00
2022-11-18T12:54:46.637Z,100.00
2022-11-18T12:57:17.906Z,100.00
2022-11-18T12:59:46.007Z,100.00
2022-11-18T13:02:28.365Z,100.00
2022-11-18T13:05:22.352Z,100.00
2022-11-18T13:08:15.436Z,100.00
2022-11-18T13:11:14.407Z,100.00
2022-11-18T13:13:42.900Z,100.00
2022-11-18T13:16:44.343Z,100.00
2022-11-18T13:19:23.108Z,100.00
2022-11-18T13:22:17.786Z,100.00
2022-11-18T13:24:52.199Z,100.00
2022-11-18T13:27:31.988Z,100.00
2022-11-18T13:30:12.768Z,100.00
2022-11-18T13:32:45.547Z,100.00
2022-11-18T13:35:20.521Z,100.00
2022-11-18T13:38:02.539Z,100.00
2022-11-18T13:41:09.082Z,100.00
2022-11-18T13:43:36.402Z,100.00
2022-11-18T13:46:22.478Z,100.00
2022-11-18T13:48:58.733Z,100.00
2022-11-18T13:51:26.448Z,100.00
2022-11-18T13:53:53.582Z,100.00
2022-11-18T13:56:31.636Z,100.00
2022-11-18T13:59:18.045Z,100.00
2022-11-18T14:01:47.205Z,100.00
2022-11-18T14:04:23.986Z,100.00
2022-11-18T14:06:51.096Z,100.00
2022-11-18T14:09:30.379Z,100.00
2022-11-18T14:12:32.776Z,100.00
2022-11-18T14:15:30.497Z,100.00
2022-11-18T14:18:00.218Z,100.00
2022-11-18T14:20:30.702Z,100.00
2022-11-18T14:23:01.153Z,100.00
2022-11-18T14:25:36.512Z,100.00
2022-11-18T14:28:18.401Z,100.00
2022-11-18T14:31:12.684Z,100.00
2022-11-18T14:33:39.742Z,100.00
2022-11-18T14:36:24.949Z,100.00
2022-11-18T14:41:48.320Z,100.00
2022-11-18T14:44:16.488Z,100.00
2022-11-18T14:46:53.294Z,100.00
2022-11-18T14:49:24.015Z,100.00
2022-11-18T14:51:52.877Z,100.00
2022-11-18T14:54:27.231Z,100.00
2022-11-18T14:57:00.183Z,100.00
2022-11-18T14:59:27.253Z,100.00
2022-11-18T15:01:54.755Z,100.00
2022-11-18T15:04:22.267Z,100.00
2022-11-18T15:06:49.479Z,100.00
2022-11-18T15:09:16.605Z,100.00
2022-11-18T15:11:44.611Z,100.00
2022-11-18T15:14:11.639Z,100.00
2022-11-18T15:16:38.594Z,100.00
2022-11-18T15:19:06.384Z,100.00
2022-11-18T15:21:33.856Z,100.00
2022-11-18T15:24:03.010Z,100.00
2022-11-18T15:26:37.179Z,100.00
2022-11-18T15:29:04.751Z,100.00
2022-11-18T15:31:31.712Z,100.00
2022-11-18T15:34:03.461Z,100.00
2022-11-18T15:36:33.480Z,100.00
2022-11-18T15:39:01.644Z,100.00
2022-11-18T15:41:31.091Z,100.00
2022-11-18T15:44:00.615Z,100.00
2022-11-18T15:46:29.961Z,100.00
2022-11-18T15:49:00.983Z,99.94
2022-11-18T15:51:30.175Z,100.00
2022-11-18T15:53:58.295Z,100.00
2022-11-18T15:56:30.158Z,100.00
2022-11-18T15:58:59.508Z,99.90
2022-11-18T16:01:29.858Z,99.80
2022-11-18T16:03:57.161Z,99.81
2022-11-18T16:06:25.132Z,99.78
2022-11-18T16:08:58.871Z,99.92
2022-11-18T16:11:47.589Z,99.64
2022-11-18T16:14:18.133Z,99.90
2022-11-18T16:16:47.740Z,99.53
2022-11-18T16:19:18.748Z,99.76
2022-11-18T16:21:51.508Z,99.21
2022-11-18T16:24:25.481Z,99.54
2022-11-18T16:26:52.903Z,99.34
2022-11-18T16:29:21.130Z,99.63
2022-11-18T16:31:54.144Z,99.49
2022-11-18T16:34:25.456Z,99.78
2022-11-18T16:36:59.636Z,99.69
2022-11-18T16:39:28.307Z,99.45
2022-11-18T16:42:03.757Z,99.65
2022-11-18T16:44:34.782Z,99.65
2022-11-18T16:47:01.937Z,99.41
2022-11-18T16:49:29.076Z,99.82
2022-11-18T16:51:57.079Z,99.54
2022-11-18T16:54:30.163Z,99.12
2022-11-18T16:56:59.160Z,99.55
2022-11-18T16:59:30.953Z,99.72
2022-11-18T17:02:00.071Z,99.92
2022-11-18T17:04:29.146Z,99.60
2022-11-18T17:06:59.576Z,99.24
2022-11-18T17:09:27.073Z,99.27
2022-11-18T17:11:55.645Z,99.38
2022-11-18T17:14:23.404Z,99.26
2022-11-18T17:16:51.613Z,99.64
2022-11-18T17:19:22.224Z,99.88
2022-11-18T17:21:51.035Z,99.11
2022-11-18T17:24:21.684Z,99.39
2022-11-18T17:26:49.512Z,99.23
2022-11-18T17:29:16.904Z,99.25
2022-11-18T17:31:48.014Z,99.16
2022-11-18T17:34:21.059Z,98.78
2022-11-18T17:36:48.506Z,99.00
2022-11-18T17:39:17.393Z,98.94
2022-11-18T17:42:04.131Z,98.72
2022-11-18T17:44:33.731Z,99.14
2022-11-18T17:47:02.742Z,99.02
2022-11-18T17:49:29.824Z,98.87
2022-11-18T17:51:58.933Z,98.77
2022-11-18T17:54:32.185Z,99.07
2022-11-18T17:59:48.149Z,98.95
2022-11-18T18:05:13.633Z,98.98
2022-11-18T18:07:44.029Z,98.65
2022-11-18T18:10:12.738Z,98.75
2022-11-18T18:13:07.988Z,98.33
2022-11-18T18:15:36.591Z,98.89
2022-11-18T18:18:09.601Z,98.67
2022-11-18T18:20:42.145Z,98.67
2022-11-18T18:23:15.555Z,98.74
2022-11-18T18:25:44.647Z,98.32
2022-11-18T18:28:15.142Z,98.25
2022-11-18T18:30:47.922Z,98.22
2022-11-18T18:33:23.934Z,98.39
2022-11-18T18:35:59.223Z,98.24
2022-11-18T18:38:28.341Z,98.17
2022-11-18T18:41:06.422Z,98.36
2022-11-18T18:43:35.764Z,98.57
2022-11-18T18:46:34.960Z,98.37
2022-11-18T18:49:19.211Z,98.17
2022-11-18T18:51:55.853Z,98.27
2022-11-18T18:54:27.110Z,98.35
2022-11-18T18:56:55.473Z,98.45
2022-11-18T18:59:22.828Z,98.35
2022-11-18T19:01:49.978Z,98.44
2022-11-18T19:04:17.606Z,98.82
2022-11-18T19:06:53.647Z,98.36
2022-11-18T19:09:35.443Z,98.40
2022-11-18T19:12:32.094Z,99.12
2022-11-18T19:15:06.932Z,99.36
2022-11-18T19:17:41.555Z,98.98
2022-11-18T19:20:32.676Z,98.62
2022-11-18T19:23:10.289Z,99.04
2022-11-18T19:25:37.992Z,98.97
2022-11-18T19:28:05.052Z,98.79
2022-11-18T19:30:32.501Z,98.76
2022-11-18T19:32:59.537Z,98.63
2022-11-18T19:37:58.376Z,99.12
2022-11-18T19:40:28.459Z,98.78
2022-11-18T19:42:55.831Z,99.21
2022-11-18T19:45:22.994Z,99.25
2022-11-18T19:47:49.947Z,99.46
2022-11-18T19:50:17.256Z,99.28
2022-11-18T19:52:48.323Z,98.98
2022-11-18T19:55:15.592Z,99.08
2022-11-18T19:57:42.596Z,98.64
2022-11-18T20:00:10.562Z,98.81
2022-11-18T20:02:38.406Z,98.33
2022-11-18T20:05:24.385Z,98.44
2022-11-18T20:07:55.935Z,98.86
2022-11-18T20:10:23.009Z,99.09
2022-11-18T20:12:50.335Z,98.79
2022-11-18T20:15:17.397Z,98.97
2022-11-18T20:17:44.465Z,98.31
2022-11-18T20:20:11.627Z,98.68
2022-11-18T20:22:38.626Z,98.92
2022-11-18T20:25:07.870Z,99.18
2022-11-18T20:27:34.830Z,99.28
2022-11-18T20:30:02.518Z,99.90
2022-11-18T20:32:29.602Z,99.47
2022-11-18T20:34:56.761Z,100.00
2022-11-18T20:37:27.922Z,100.00
2022-11-18T20:39:55.348Z,100.00
2022-11-18T20:42:40.992Z,99.74
2022-11-18T20:45:08.643Z,99.42
2022-11-18T20:47:35.598Z,99.59
2022-11-18T20:50:02.644Z,100.00
2022-11-18T20:52:29.584Z,99.56
2022-11-18T20:54:59.180Z,99.70
2022-11-18T20:57:29.727Z,99.47
2022-11-18T20:59:56.694Z,99.37
2022-11-18T21:02:23.659Z,99.67
2022-11-18T21:04:50.677Z,99.67
2022-11-18T21:07:17.829Z,99.48
2022-11-18T21:09:45.187Z,99.75
2022-11-18T21:12:12.281Z,99.57
2022-11-18T21:14:39.271Z,100.00
2022-11-18T21:17:06.415Z,99.44
2022-11-18T21:19:33.810Z,99.49
2022-11-18T21:22:00.806Z,99.82
2022-11-18T21:24:31.497Z,99.34
2022-11-18T21:27:00.486Z,99.31
2022-11-18T21:29:30.371Z,99.68
2022-11-18T21:32:01.305Z,99.60
2022-11-18T21:34:29.036Z,99.98
2022-11-18T21:36:56.049Z,100.00
2022-11-18T21:39:24.548Z,99.63
2022-11-18T21:41:55.710Z,99.86
2022-11-18T21:44:24.487Z,99.41
2022-11-18T21:46:51.805Z,99.83
2022-11-18T21:49:19.248Z,100.00
2022-11-18T21:51:46.758Z,100.00
2022-11-18T21:54:15.868Z,100.00
2022-11-18T21:56:43.275Z,100.00
2022-11-18T21:59:10.371Z,100.00
2022-11-18T22:01:37.344Z,100.00
2022-11-18T22:04:05.674Z,100.00
2022-11-18T22:06:34.437Z,100.00
2022-11-18T22:09:03.991Z,100.00
2022-11-18T22:11:30.981Z,100.00
2022-11-18T22:13:58.235Z,100.00
2022-11-18T22:16:26.714Z,100.00
2022-11-18T22:19:01.363Z,100.00
2022-11-18T22:21:32.126Z,100.00
2022-11-18T22:24:00.984Z,100.00
2022-11-18T22:26:28.909Z,100.00
2022-11-18T22:28:57.824Z,100.00
2022-11-18T22:31:27.405Z,100.00
2022-11-18T22:33:55.825Z,100.00
2022-11-18T22:36:25.719Z,100.00
2022-11-18T22:38:54.436Z,100.00
2022-11-18T22:41:43.895Z,100.00
2022-11-18T22:44:12.476Z,100.00
2022-11-18T22:46:41.326Z,100.00
2022-11-18T22:49:09.946Z,100.00
2022-11-18T22:51:38.532Z,99.84
2022-11-18T22:56:54.616Z,100.00
2022-11-18T22:59:21.935Z,100.00
2022-11-18T23:01:51.708Z,99.83
2022-11-18T23:04:19.050Z,99.57
2022-11-18T23:06:46.063Z,99.58
2022-11-18T23:09:13.308Z,99.79
2022-11-18T23:12:01.217Z,99.94
2022-11-18T23:14:30.569Z,99.68
2022-11-18T23:16:57.757Z,100.00
2022-11-18T23:19:24.686Z,100.00
2022-11-18T23:21:51.696Z,99.77
2022-11-18T23:24:19.567Z,100.00
2022-11-18T23:26:47.890Z,100.00
2022-11-18T23:29:15.516Z,100.00
2022-11-18T23:31:44.490Z,100.00
2022-11-18T23:34:14.043Z,100.00
2022-11-18T23:36:41.821Z,100.00
2022-11-18T23:39:09.387Z,100.00
2022-11-18T23:41:36.418Z,100.00
2022-11-18T23:44:03.963Z,100.00
2022-11-18T23:46:31.668Z,100.00
2022-11-18T23:48:58.905Z,100.00
2022-11-18T23:51:26.180Z,100.00
2022-11-18T23:53:56.201Z,100.00
2022-11-18T23:56:26.446Z,99.91
2022-11-18T23:58:55.694Z,100.00
